Camden, MI (49232)

5:39 AM EDT on August 30, 2015 (GMT -0400)
Pioneer Scout Reservation | | Change Station
CLOSE
Current Station
Personal Weather Station
Location: Pioneer, OH
Elevation: 997 ft
Nearby Weather Stations

Elev 997 ft 41.70 °N, 84.68 °W | Updated 4 minutes ago

Overcast
Overcast
64.7 °F
Feels Like 64.7 °F
N
0.0
Wind Variable Wind from North
Gusts 0.0 mph

Today
High -- | Low -- °F
--% Chance of Precip.
Yesterday
High -- | Low -- °F
Precip. -- in
7:02 AM 8:15 PM
Waxing Gibbous, 99% visible
Pressure 30.05 in
Visibility 5.0 miles
Clouds Mostly Cloudy 2000 ft
Overcast 3100 ft
Dew Point 64 °F
Humidity 98%
Rainfall 0.14 in
Snow Depth Not available.
UV 0 out of 12
Pollen 8.60 out of 12
Air Quality Not available.
Flu Activity Not available.
METAR KJYM 300934Z AUTO 16003KT 5SM BR BKN020 OVC031 19/19 A3005 RMK AO2 T01890189
Pressure 30.05 in
Visibility 5.0 miles
Clouds Mostly Cloudy 2000 ft
Overcast 3100 ft
Dew Point 64 °F
Humidity 98%
Rainfall 0.14 in
Snow Depth Not available.
UV 0 out of 12
Pollen 8.60 out of 12
Air Quality Not available.
Flu Activity Not available.
METAR KJYM 300934Z AUTO 16003KT 5SM BR BKN020 OVC031 19/19 A3005 RMK AO2 T01890189

10-Day Weather Forecast

×

Almanac

Astronomy

Aug. 30, 2015 Rise Set
Actual Time
Civil Twilight
Nautical Twilight
Astronomical Twilight
Moon
Length of Visible Light
Length of Day
Tomorrow will be .
, % of the Moon is Illuminated

Today's Extremes

State Highs State Lows

Community

WunderPhotos

Upload Photos

1,850,919 photos uploaded!

WunderBlogs® & News

Nearby

Air Quality

  Air Quality AQ Index Pollutant
Not available.

Snow Depth

Station Depth Elevation

Earthquake Activity

City Distance Mag. Time & Date
Minimum magnitude displayed is 2.5.

Coastal Water Temperatures

Place Temperature

Stations

Nearby Weather Stations

Station Location Temp. Windchill Dew Point Humidity Wind Precip. Elev Updated Type